SBJU/JDO METAR and TAF weather

Enter ICAO airport designator
Station Type Date Time Source
SBJU METAR 2019/08/24 20:00 UTC NOAA

SBJU 242000Z 00000KT 9999 FEW022 33/07 Q1018


Station Type Date Time Source
SBJU Decoded METAR 2019/08/24 20:00 UTC NOAA

Station name not available
Aug 24, 2019 - 04:00 PM EDT / 2019.08.24 2000 UTC
Wind: Calm:0
Visibility: greater than 7 mile(s):0
Sky conditions: mostly clear
Temperature: 91 F (33 C)
Dew Point: 44 F (7 C)
Relative Humidity: 19%
Pressure (altimeter): 30.06 in. Hg (1018 hPa)
ob: SBJU 242000Z 00000KT 9999 FEW022 33/07 Q1018
cycle: 20

Station Type Date Time Source
SBJU TAF 2011/11/01 00:05 UTC NOAA

TAF SBJU 012200Z 0200/0212 00000KT 9999 SCT020 TX28/0200Z TN24/0207Z
BECMG 0210/0212 06005KT
RMK PCE

Example: see airport list